Time;durP1;ratioP1;P1;durP2;ratioP2;P2;SDS_P1;SDS_P2;PMS_P1;PMS_P2;Temp;Humidity;BMP_temperature;BMP_pressure;BME280_temperature;BME280_humidity;BME280_pressure;Samples;Min_cycle;Max_cycle;Signal;HPM_P1;HPM_P2
2022/05/05 00:01:34;;;;;;;10.67;5.27;;;;;;;;;;4964266;28;20925;-50
2022/05/05 00:04:00;;;;;;;12.23;5.53;;;;;;;;;;4962146;28;20182;-50
2022/05/05 00:06:26;;;;;;;10.70;5.37;;;;;;;;;;4966218;28;20266;-50
2022/05/05 00:08:52;;;;;;;7.47;5.23;;;;;;;;;;4962542;28;20261;-49
2022/05/05 00:16:48;;;;;;;9.57;5.90;;;;;;;;;;4963613;28;20237;-49
2022/05/05 00:19:14;;;;;;;12.23;5.03;;;;;;;;;;4966671;28;20218;-49
2022/05/05 00:21:39;;;;;;;7.03;5.03;;;;;;;;;;4969286;28;20229;-49
2022/05/05 00:24:06;;;;;;;9.20;5.03;;;;;;;;;;4969971;28;20190;-49
2022/05/05 00:26:32;;;;;;;8.13;5.37;;;;;;;;;;4970639;28;20194;-49
2022/05/05 00:28:58;;;;;;;7.77;5.20;;;;;;;;;;4964678;28;20190;-49
2022/05/05 00:31:24;;;;;;;8.07;4.93;;;;;;;;;;4954883;28;20199;-50
2022/05/05 00:33:50;;;;;;;8.10;5.17;;;;;;;;;;4959449;28;21169;-50
2022/05/05 00:36:16;;;;;;;11.17;6.37;;;;;;;;;;4956491;28;20599;-50
2022/05/05 00:38:42;;;;;;;10.33;5.93;;;;;;;;;;4959610;28;20570;-50
2022/05/05 00:41:08;;;;;;;8.03;5.37;;;;;;;;;;4967508;28;20218;-50
2022/05/05 00:43:34;;;;;;;12.13;5.93;;;;;;;;;;4969986;28;20199;-50
2022/05/05 00:46:00;;;;;;;11.80;6.07;;;;;;;;;;4969038;28;21361;-50
2022/05/05 00:48:26;;;;;;;8.30;5.77;;;;;;;;;;4970361;28;20848;-50
2022/05/05 00:50:52;;;;;;;9.13;5.40;;;;;;;;;;4966296;28;20245;-50
2022/05/05 00:53:18;;;;;;;12.73;5.87;;;;;;;;;;4963418;28;20657;-50
2022/05/05 00:55:44;;;;;;;9.50;5.57;;;;;;;;;;4967747;28;20190;-50
2022/05/05 00:58:10;;;;;;;11.37;5.43;;;;;;;;;;4969363;28;20195;-50
2022/05/05 01:03:12;;;;;;;9.00;5.70;;;;;;;;;;5729724;22;20384;-72
2022/05/05 01:05:38;;;;;;;9.50;5.23;;;;;;;;;;4947906;28;20182;-73
2022/05/05 01:08:05;;;;;;;8.43;5.27;;;;;;;;;;4960166;28;20270;-73
2022/05/05 01:10:30;;;;;;;7.53;5.30;;;;;;;;;;4958610;28;20675;-73
2022/05/05 01:12:56;;;;;;;8.27;5.23;;;;;;;;;;4974048;28;20225;-73
2022/05/05 01:15:22;;;;;;;11.33;5.13;;;;;;;;;;4962187;28;20210;-73
2022/05/05 01:17:48;;;;;;;9.10;5.03;;;;;;;;;;4952136;28;20217;-75
2022/05/05 01:20:18;;;;;;;7.90;5.47;;;;;;;;;;4967416;28;20394;-73
2022/05/05 01:22:44;;;;;;;8.87;5.17;;;;;;;;;;4972371;28;20268;-73
2022/05/05 01:28:12;;;;;;;8.40;5.37;;;;;;;;;;4975663;28;20214;-73
2022/05/05 01:30:42;;;;;;;8.23;5.27;;;;;;;;;;4962453;28;21771;-73
2022/05/05 01:33:20;;;;;;;10.80;5.60;;;;;;;;;;4968656;28;20249;-73
2022/05/05 01:35:47;;;;;;;9.50;5.30;;;;;;;;;;4983308;28;20199;-73
2022/05/05 01:38:13;;;;;;;7.03;5.30;;;;;;;;;;4964200;28;20716;-73
2022/05/05 01:40:39;;;;;;;8.47;5.63;;;;;;;;;;4966169;28;20224;-72
2022/05/05 01:43:08;;;;;;;10.70;5.33;;;;;;;;;;4975564;28;20201;-73
2022/05/05 01:45:34;;;;;;;9.00;5.80;;;;;;;;;;4958984;28;20464;-73
2022/05/05 01:48:00;;;;;;;11.87;5.60;;;;;;;;;;4969137;28;20217;-73
2022/05/05 01:50:26;;;;;;;8.37;4.67;;;;;;;;;;4966726;28;20190;-73
2022/05/05 01:52:53;;;;;;;7.23;5.03;;;;;;;;;;4970921;28;20252;-73
2022/05/05 01:55:19;;;;;;;8.03;4.53;;;;;;;;;;4963620;28;20226;-73
2022/05/05 01:57:45;;;;;;;9.73;4.87;;;;;;;;;;4971056;28;20277;-73
2022/05/05 02:00:11;;;;;;;8.20;5.70;;;;;;;;;;4970613;28;20305;-73
2022/05/05 02:02:37;;;;;;;10.67;5.73;;;;;;;;;;4972530;28;20199;-73
2022/05/05 02:05:04;;;;;;;7.27;5.23;;;;;;;;;;4981525;28;20212;-73
2022/05/05 02:07:30;;;;;;;11.07;5.80;;;;;;;;;;4988722;28;20216;-73
2022/05/05 02:09:55;;;;;;;11.63;6.20;;;;;;;;;;4987254;28;20217;-73
2022/05/05 02:12:21;;;;;;;9.33;5.63;;;;;;;;;;4986083;28;20316;-73
2022/05/05 02:14:47;;;;;;;8.97;5.37;;;;;;;;;;4984842;28;20610;-78
2022/05/05 02:17:13;;;;;;;7.33;4.87;;;;;;;;;;4984959;28;20781;-73
2022/05/05 02:19:40;;;;;;;7.80;5.50;;;;;;;;;;4988622;28;20580;-73
2022/05/05 02:22:06;;;;;;;11.07;5.57;;;;;;;;;;4985266;28;20300;-73
2022/05/05 02:24:31;;;;;;;8.07;5.63;;;;;;;;;;4987462;28;20190;-73
2022/05/05 02:26:57;;;;;;;13.57;6.37;;;;;;;;;;4987878;28;20681;-73
2022/05/05 02:29:23;;;;;;;10.50;5.37;;;;;;;;;;4988004;28;21484;-73
2022/05/05 02:31:49;;;;;;;10.87;5.93;;;;;;;;;;4991515;28;20194;-72
2022/05/05 02:34:15;;;;;;;9.57;5.50;;;;;;;;;;4984105;28;20204;-73
2022/05/05 02:39:26;;;;;;;8.17;5.33;;;;;;;;;;4986918;28;20244;-72
2022/05/05 02:41:52;;;;;;;8.80;5.27;;;;;;;;;;4983078;28;20655;-72
2022/05/05 02:44:18;;;;;;;14.17;5.60;;;;;;;;;;4985561;28;20175;-72
2022/05/05 02:46:44;;;;;;;10.90;5.40;;;;;;;;;;4965716;28;20225;-72
2022/05/05 02:49:12;;;;;;;14.70;5.20;;;;;;;;;;4987180;28;20622;-73
2022/05/05 02:51:38;;;;;;;12.37;5.57;;;;;;;;;;4999083;28;20658;-72
2022/05/05 02:56:49;;;;;;;14.90;5.33;;;;;;;;;;4985778;28;20684;-73
2022/05/05 02:59:15;;;;;;;9.87;5.03;;;;;;;;;;4991260;28;20197;-73
2022/05/05 03:01:41;;;;;;;11.17;5.20;;;;;;;;;;4987364;28;20212;-72
2022/05/05 03:04:07;;;;;;;12.33;5.63;;;;;;;;;;4985186;28;20233;-73
2022/05/05 03:06:33;;;;;;;15.37;5.83;;;;;;;;;;4990638;28;20301;-72
2022/05/05 03:08:59;;;;;;;14.77;5.43;;;;;;;;;;4995085;28;20201;-72
2022/05/05 03:11:25;;;;;;;14.77;6.07;;;;;;;;;;4985426;28;20494;-73
2022/05/05 03:13:51;;;;;;;10.17;5.57;;;;;;;;;;4988327;28;20186;-72
2022/05/05 03:16:17;;;;;;;15.67;6.90;;;;;;;;;;4989720;28;20193;-72
2022/05/05 03:18:42;;;;;;;10.90;5.60;;;;;;;;;;4990804;28;20216;-73
2022/05/05 03:21:08;;;;;;;16.17;5.70;;;;;;;;;;4989500;28;20411;-73
2022/05/05 03:23:34;;;;;;;13.37;5.17;;;;;;;;;;4990231;28;20224;-73
2022/05/05 03:26:00;;;;;;;11.83;6.03;;;;;;;;;;4989601;28;20551;-73
2022/05/05 03:28:26;;;;;;;9.47;6.30;;;;;;;;;;4989369;28;20182;-73
2022/05/05 03:30:52;;;;;;;11.83;5.70;;;;;;;;;;4987809;28;20198;-73
2022/05/05 03:33:18;;;;;;;11.47;5.97;;;;;;;;;;4985707;28;20189;-73
2022/05/05 03:35:44;;;;;;;11.43;6.30;;;;;;;;;;4987978;28;20194;-72
2022/05/05 03:38:10;;;;;;;14.60;6.90;;;;;;;;;;4984682;28;20243;-73
2022/05/05 03:40:36;;;;;;;8.63;6.00;;;;;;;;;;4987802;28;20213;-72
2022/05/05 03:43:02;;;;;;;7.33;5.90;;;;;;;;;;4983050;28;20187;-73
2022/05/05 03:45:28;;;;;;;11.20;7.13;;;;;;;;;;4985488;28;20198;-73
2022/05/05 03:47:54;;;;;;;12.23;6.57;;;;;;;;;;4992729;28;20276;-73
2022/05/05 03:50:19;;;;;;;11.57;6.77;;;;;;;;;;4992761;28;21101;-73
2022/05/05 03:52:45;;;;;;;12.13;6.57;;;;;;;;;;4989946;28;20227;-73
2022/05/05 03:55:11;;;;;;;9.93;6.67;;;;;;;;;;4993871;28;20201;-73
2022/05/05 03:57:37;;;;;;;14.53;7.23;;;;;;;;;;4990858;28;20193;-73
2022/05/05 04:00:04;;;;;;;14.83;6.93;;;;;;;;;;4982380;28;20186;-73
2022/05/05 04:02:30;;;;;;;11.70;6.80;;;;;;;;;;4987722;28;20217;-73
2022/05/05 04:04:56;;;;;;;13.67;7.07;;;;;;;;;;4971702;28;20209;-73
2022/05/05 04:07:22;;;;;;;15.23;7.60;;;;;;;;;;4986033;28;20236;-73
2022/05/05 04:09:48;;;;;;;12.70;7.57;;;;;;;;;;4988683;28;20664;-73
2022/05/05 04:12:14;;;;;;;11.60;7.27;;;;;;;;;;4986569;28;20198;-73
2022/05/05 04:14:40;;;;;;;11.43;6.83;;;;;;;;;;4989520;28;20201;-72
2022/05/05 04:17:06;;;;;;;11.03;7.27;;;;;;;;;;4987054;28;20209;-72
2022/05/05 04:19:32;;;;;;;15.03;7.40;;;;;;;;;;4983920;28;20202;-74
2022/05/05 04:21:58;;;;;;;12.23;7.23;;;;;;;;;;4987707;28;20213;-73
2022/05/05 04:24:23;;;;;;;15.43;8.00;;;;;;;;;;4983059;28;20710;-73
2022/05/05 04:26:49;;;;;;;14.23;7.80;;;;;;;;;;4982069;28;20212;-73
2022/05/05 04:29:15;;;;;;;15.33;7.87;;;;;;;;;;4953461;28;20212;-73
2022/05/05 04:31:41;;;;;;;10.40;8.17;;;;;;;;;;4967707;28;20193;-72
2022/05/05 04:34:07;;;;;;;15.97;8.57;;;;;;;;;;4972057;28;20209;-72
2022/05/05 04:36:35;;;;;;;18.23;8.70;;;;;;;;;;4981009;28;20938;-72
2022/05/05 04:39:04;;;;;;;11.63;8.43;;;;;;;;;;4989368;28;20186;-72
2022/05/05 04:41:30;;;;;;;15.03;7.87;;;;;;;;;;4970086;28;20583;-72
2022/05/05 04:43:56;;;;;;;16.00;8.93;;;;;;;;;;4983095;28;20574;-72
2022/05/05 04:46:22;;;;;;;13.73;7.90;;;;;;;;;;4965510;28;20186;-72
2022/05/05 04:48:48;;;;;;;18.07;9.00;;;;;;;;;;4981103;28;20186;-72
2022/05/05 04:51:14;;;;;;;14.37;8.30;;;;;;;;;;4981599;28;20186;-73
2022/05/05 04:53:40;;;;;;;18.70;8.87;;;;;;;;;;4985630;28;20189;-73
2022/05/05 04:56:06;;;;;;;15.67;9.33;;;;;;;;;;4975818;28;20620;-73
2022/05/05 04:58:35;;;;;;;16.93;9.60;;;;;;;;;;4984590;28;20189;-73
2022/05/05 05:01:01;;;;;;;15.37;8.17;;;;;;;;;;4969637;28;20300;-73
2022/05/05 05:03:35;;;;;;;13.50;8.53;;;;;;;;;;4939225;28;1244534;-73
2022/05/05 05:06:01;;;;;;;12.53;7.63;;;;;;;;;;4966210;28;20198;-73
2022/05/05 05:08:27;;;;;;;17.53;8.57;;;;;;;;;;4967689;28;20190;-73
2022/05/05 05:10:53;;;;;;;19.50;11.67;;;;;;;;;;4976429;28;20541;-71
2022/05/05 05:13:19;;;;;;;24.13;12.80;;;;;;;;;;4984354;28;20485;-77
2022/05/05 05:15:45;;;;;;;16.27;12.10;;;;;;;;;;4990835;28;20333;-77
2022/05/05 05:18:11;;;;;;;23.17;13.03;;;;;;;;;;4992419;28;20725;-77
2022/05/05 05:20:37;;;;;;;18.60;12.93;;;;;;;;;;4995609;28;20238;-77
2022/05/05 05:23:03;;;;;;;17.97;12.50;;;;;;;;;;4999216;28;20186;-77
2022/05/05 05:25:29;;;;;;;23.53;13.07;;;;;;;;;;4989812;28;20651;-77
2022/05/05 05:27:55;;;;;;;19.87;13.10;;;;;;;;;;4991244;28;20899;-77
2022/05/05 05:30:21;;;;;;;22.53;13.50;;;;;;;;;;4968293;28;20184;-77
2022/05/05 05:32:46;;;;;;;19.67;13.90;;;;;;;;;;4987738;28;20174;-77
2022/05/05 05:35:12;;;;;;;21.13;13.50;;;;;;;;;;5005340;28;20264;-77
2022/05/05 05:37:38;;;;;;;20.03;13.20;;;;;;;;;;4986232;28;20221;-77
2022/05/05 05:40:05;;;;;;;22.87;14.27;;;;;;;;;;4973858;28;20198;-72
2022/05/05 05:42:30;;;;;;;25.03;12.50;;;;;;;;;;4975472;28;20301;-72
2022/05/05 05:44:57;;;;;;;21.23;12.90;;;;;;;;;;4986759;28;20200;-73
2022/05/05 05:47:23;;;;;;;19.33;13.13;;;;;;;;;;4989478;28;20229;-73
2022/05/05 05:49:49;;;;;;;19.17;12.23;;;;;;;;;;4996156;28;20272;-73
2022/05/05 05:52:15;;;;;;;20.30;11.77;;;;;;;;;;4991430;28;20245;-73
2022/05/05 05:54:40;;;;;;;19.97;11.80;;;;;;;;;;4998415;28;20197;-73
2022/05/05 05:57:06;;;;;;;19.03;11.93;;;;;;;;;;4987484;28;20544;-74
2022/05/05 05:59:32;;;;;;;16.80;11.90;;;;;;;;;;4992438;28;20679;-74
2022/05/05 06:04:43;;;;;;;16.83;10.53;;;;;;;;;;4979594;28;21172;-73
2022/05/05 06:07:09;;;;;;;22.53;11.70;;;;;;;;;;4991203;28;20183;-73
2022/05/05 06:09:35;;;;;;;18.40;11.63;;;;;;;;;;4984598;28;20258;-73
2022/05/05 06:12:03;;;;;;;22.00;11.33;;;;;;;;;;4988408;28;20192;-72
2022/05/05 06:14:29;;;;;;;20.07;11.13;;;;;;;;;;4989706;28;20190;-73
2022/05/05 06:16:55;;;;;;;14.40;9.97;;;;;;;;;;4995424;28;20201;-72
2022/05/05 06:19:21;;;;;;;15.87;10.33;;;;;;;;;;4990227;28;20194;-72
2022/05/05 06:21:47;;;;;;;16.50;9.60;;;;;;;;;;4984232;28;20663;-73
2022/05/05 06:24:12;;;;;;;13.47;10.40;;;;;;;;;;4985139;28;20272;-73
2022/05/05 06:26:38;;;;;;;18.80;10.10;;;;;;;;;;4985748;28;20198;-72
2022/05/05 06:29:04;;;;;;;17.40;9.40;;;;;;;;;;4985253;28;20239;-73
2022/05/05 06:31:30;;;;;;;15.87;8.87;;;;;;;;;;4978406;28;20232;-73
2022/05/05 06:33:56;;;;;;;15.57;8.90;;;;;;;;;;4991606;28;20277;-72
2022/05/05 06:36:23;;;;;;;17.47;8.97;;;;;;;;;;4987216;28;20700;-73
2022/05/05 06:38:51;;;;;;;19.23;9.03;;;;;;;;;;4989945;28;20185;-74
2022/05/05 06:41:17;;;;;;;14.77;8.97;;;;;;;;;;4971254;28;20220;-73
2022/05/05 06:43:43;;;;;;;16.00;9.53;;;;;;;;;;4986982;28;20224;-73
2022/05/05 06:46:09;;;;;;;14.80;8.90;;;;;;;;;;4986629;28;20639;-73
2022/05/05 06:48:35;;;;;;;12.27;7.80;;;;;;;;;;4971907;28;20192;-73
2022/05/05 06:51:01;;;;;;;14.67;8.30;;;;;;;;;;4968742;28;20190;-73
2022/05/05 06:53:27;;;;;;;18.50;8.27;;;;;;;;;;4974004;28;20212;-73
2022/05/05 06:55:57;;;;;;;14.07;8.27;;;;;;;;;;4989665;28;20205;-73
2022/05/05 06:58:23;;;;;;;20.33;8.83;;;;;;;;;;4989376;28;20190;-73
2022/05/05 07:03:34;;;;;;;17.33;8.40;;;;;;;;;;4979598;28;20874;-73
2022/05/05 07:06:00;;;;;;;15.23;8.00;;;;;;;;;;4965709;28;21644;-72
2022/05/05 07:08:26;;;;;;;12.20;7.80;;;;;;;;;;4979236;28;20189;-74
2022/05/05 07:10:52;;;;;;;15.63;8.10;;;;;;;;;;4984278;28;20619;-73
2022/05/05 07:13:18;;;;;;;22.20;7.80;;;;;;;;;;4986350;28;20232;-73
2022/05/05 07:15:44;;;;;;;13.60;7.33;;;;;;;;;;4986771;28;20600;-73
2022/05/05 07:18:10;;;;;;;15.57;8.10;;;;;;;;;;4991465;28;20647;-73
2022/05/05 07:20:36;;;;;;;15.20;6.90;;;;;;;;;;4994162;28;20614;-73
2022/05/05 07:23:03;;;;;;;17.23;7.40;;;;;;;;;;4986741;28;20655;-74
2022/05/05 07:25:29;;;;;;;15.37;8.10;;;;;;;;;;4990840;28;20226;-74
2022/05/05 07:27:54;;;;;;;11.50;7.77;;;;;;;;;;4989482;28;20197;-73
2022/05/05 07:30:21;;;;;;;10.80;7.33;;;;;;;;;;4986536;28;20193;-73
2022/05/05 07:32:47;;;;;;;15.80;7.47;;;;;;;;;;4982215;28;20198;-73
2022/05/05 07:35:13;;;;;;;16.50;8.03;;;;;;;;;;4986651;28;20210;-74
2022/05/05 07:37:39;;;;;;;15.63;7.57;;;;;;;;;;4972295;28;20217;-73
2022/05/05 07:40:05;;;;;;;14.07;7.63;;;;;;;;;;4985950;28;20278;-74
2022/05/05 07:42:31;;;;;;;14.83;8.10;;;;;;;;;;4985489;28;20202;-73
2022/05/05 07:44:57;;;;;;;16.40;7.37;;;;;;;;;;4981470;28;20197;-74
2022/05/05 07:47:25;;;;;;;14.90;7.93;;;;;;;;;;4985523;28;20186;-74
2022/05/05 07:49:51;;;;;;;16.03;7.30;;;;;;;;;;4986456;28;20181;-74
2022/05/05 07:52:17;;;;;;;16.73;7.43;;;;;;;;;;4988069;28;20253;-73
2022/05/05 07:54:43;;;;;;;14.50;6.73;;;;;;;;;;4983738;28;20247;-72
2022/05/05 07:57:11;;;;;;;14.13;6.40;;;;;;;;;;4999990;28;20185;-72
2022/05/05 07:59:37;;;;;;;12.47;6.57;;;;;;;;;;4987248;28;20237;-73
2022/05/05 08:02:04;;;;;;;10.17;6.30;;;;;;;;;;4987252;28;20231;-73
2022/05/05 08:04:30;;;;;;;15.23;6.57;;;;;;;;;;4965359;28;20257;-73
2022/05/05 08:06:56;;;;;;;13.70;6.20;;;;;;;;;;4983244;28;20201;-72
2022/05/05 08:09:22;;;;;;;11.33;6.10;;;;;;;;;;4986763;28;20227;-72
2022/05/05 08:11:48;;;;;;;11.40;5.70;;;;;;;;;;4989503;28;20264;-72
2022/05/05 08:14:14;;;;;;;8.85;5.20;;;;;;;;;;4991143;28;20580;-72
2022/05/05 08:16:40;;;;;;;12.55;5.40;;;;;;;;;;4989639;28;20272;-72
2022/05/05 08:19:06;;;;;;;11.57;5.63;;;;;;;;;;4970020;28;20194;-72
2022/05/05 08:21:32;;;;;;;12.63;7.10;;;;;;;;;;4976712;28;20580;-72
2022/05/05 08:29:27;;;;;;;9.55;6.88;;;;;;;;;;4986593;28;20197;-72
2022/05/05 08:31:53;;;;;;;9.30;6.43;;;;;;;;;;4991151;28;20199;-72
2022/05/05 08:34:19;;;;;;;10.73;6.35;;;;;;;;;;4994555;28;20304;-72
2022/05/05 08:36:45;;;;;;;11.00;4.82;;;;;;;;;;4994814;28;20189;-72
2022/05/05 08:39:12;;;;;;;9.45;4.60;;;;;;;;;;4990999;28;20198;-71
2022/05/05 08:41:40;;;;;;;11.55;6.75;;;;;;;;;;4992259;28;20209;-72
2022/05/05 08:44:08;;;;;;;9.13;5.32;;;;;;;;;;4992519;28;20194;-73
2022/05/05 08:46:34;;;;;;;9.00;5.00;;;;;;;;;;4992856;28;20272;-72
2022/05/05 08:49:03;;;;;;;8.05;3.90;;;;;;;;;;4989699;28;20198;-72
2022/05/05 08:51:29;;;;;;;7.50;4.60;;;;;;;;;;4988384;28;20182;-72
2022/05/05 08:53:54;;;;;;;8.30;4.55;;;;;;;;;;4991548;28;20194;-72
2022/05/05 08:56:20;;;;;;;5.38;4.10;;;;;;;;;;4988897;28;20295;-72
2022/05/05 08:58:46;;;;;;;8.30;4.30;;;;;;;;;;4987708;28;20615;-72
2022/05/05 09:01:12;;;;;;;8.25;5.60;;;;;;;;;;4982822;28;21380;-73
2022/05/05 09:03:38;;;;;;;7.50;4.95;;;;;;;;;;4992085;28;20229;-72
2022/05/05 09:06:04;;;;;;;10.73;5.53;;;;;;;;;;4988724;28;20266;-72
2022/05/05 09:08:31;;;;;;;11.93;5.55;;;;;;;;;;4993981;28;20178;-72
2022/05/05 09:10:58;;;;;;;6.47;4.40;;;;;;;;;;4984029;28;20713;-72
2022/05/05 09:13:25;;;;;;;7.80;5.38;;;;;;;;;;4985803;28;20658;-73
2022/05/05 09:15:52;;;;;;;12.98;5.40;;;;;;;;;;4969341;28;20201;-72
2022/05/05 09:18:19;;;;;;;8.43;5.45;;;;;;;;;;4990743;28;20190;-72
2022/05/05 09:20:45;;;;;;;7.78;5.57;;;;;;;;;;4989826;28;20209;-72
2022/05/05 09:23:27;;;;;;;7.80;4.43;;;;;;;;;;4978158;28;20197;-72
2022/05/05 09:25:53;;;;;;;8.07;4.90;;;;;;;;;;4994384;28;20710;-73
2022/05/05 09:28:23;;;;;;;9.20;5.60;;;;;;;;;;4982693;28;20194;-72
2022/05/05 09:30:50;;;;;;;21.10;6.68;;;;;;;;;;4994112;28;20598;-72
2022/05/05 09:33:17;;;;;;;13.75;6.07;;;;;;;;;;4980155;28;20198;-71
2022/05/05 09:35:43;;;;;;;6.50;4.40;;;;;;;;;;4978219;28;20183;-73
2022/05/05 09:38:09;;;;;;;10.25;4.43;;;;;;;;;;4992956;28;20200;-73
2022/05/05 09:40:36;;;;;;;5.30;3.38;;;;;;;;;;4999942;28;20194;-73
2022/05/05 09:43:02;;;;;;;8.10;5.25;;;;;;;;;;4990203;28;20186;-73
2022/05/05 09:45:31;;;;;;;8.18;4.78;;;;;;;;;;4991843;28;20197;-72
2022/05/05 09:47:58;;;;;;;9.18;5.32;;;;;;;;;;4994089;28;20186;-72
2022/05/05 09:50:27;;;;;;;8.25;5.30;;;;;;;;;;4992942;28;20295;-73
2022/05/05 09:58:24;;;;;;;6.35;4.15;;;;;;;;;;4984422;28;20197;-72
2022/05/05 10:00:59;;;;;;;7.93;4.10;;;;;;;;;;4967509;28;20534;-73
2022/05/05 10:06:25;;;;;;;5.63;3.92;;;;;;;;;;4986188;28;20674;-74
2022/05/05 10:08:53;;;;;;;6.85;3.65;;;;;;;;;;4985240;28;20268;-72
2022/05/05 10:11:19;;;;;;;5.57;3.75;;;;;;;;;;4991694;28;20552;-72
2022/05/05 10:13:45;;;;;;;5.88;4.00;;;;;;;;;;4987833;28;20320;-73
2022/05/05 10:16:11;;;;;;;10.48;4.00;;;;;;;;;;4997445;28;20185;-73
2022/05/05 10:18:38;;;;;;;6.13;3.90;;;;;;;;;;4992329;28;20887;-72
2022/05/05 10:21:05;;;;;;;6.85;3.70;;;;;;;;;;4992237;28;20242;-73
2022/05/05 10:23:50;;;;;;;5.65;3.67;;;;;;;;;;4988955;28;20194;-73
2022/05/05 10:26:18;;;;;;;6.68;3.58;;;;;;;;;;4988240;28;20239;-73
2022/05/05 10:28:47;;;;;;;7.07;3.58;;;;;;;;;;4986212;28;20197;-72
2022/05/05 10:31:14;;;;;;;4.95;3.70;;;;;;;;;;4988999;28;20209;-73
2022/05/05 10:34:09;;;;;;;4.07;3.67;;;;;;;;;;4987419;28;20266;-72
2022/05/05 10:36:35;;;;;;;8.55;3.58;;;;;;;;;;4990775;28;20194;-72
2022/05/05 10:39:17;;;;;;;12.65;8.15;;;;;;;;;;4981168;28;20680;-75
2022/05/05 10:41:43;;;;;;;13.05;8.35;;;;;;;;;;4992511;28;20698;-75
2022/05/05 10:44:19;;;;;;;11.93;8.07;;;;;;;;;;4987999;28;20213;-75
2022/05/05 10:46:51;;;;;;;9.90;8.02;;;;;;;;;;4983951;28;20190;-73
2022/05/05 10:52:10;;;;;;;12.52;8.52;;;;;;;;;;4989032;28;20189;-74
2022/05/05 10:54:36;;;;;;;14.50;7.97;;;;;;;;;;4992219;28;20308;-74
2022/05/05 10:57:21;;;;;;;14.30;8.25;;;;;;;;;;4987872;28;20235;-75
2022/05/05 11:00:05;;;;;;;12.48;7.75;;;;;;;;;;4961547;28;20431;-71
2022/05/05 11:02:31;;;;;;;9.05;7.50;;;;;;;;;;4979334;28;20748;-71
2022/05/05 11:05:16;;;;;;;9.30;7.68;;;;;;;;;;4983235;28;20194;-73
2022/05/05 11:07:43;;;;;;;9.65;5.05;;;;;;;;;;4984622;28;20682;-72
2022/05/05 11:10:09;;;;;;;7.15;4.50;;;;;;;;;;4988393;28;20224;-72
2022/05/05 11:12:35;;;;;;;6.70;3.85;;;;;;;;;;4989862;28;20194;-72
2022/05/05 11:23:45;;;;;;;10.80;5.22;;;;;;;;;;4971340;28;20193;-73
2022/05/05 11:26:12;;;;;;;5.85;3.88;;;;;;;;;;4983538;28;20235;-72
2022/05/05 11:28:38;;;;;;;6.13;3.38;;;;;;;;;;4988211;28;20232;-72
2022/05/05 11:31:04;;;;;;;7.75;3.97;;;;;;;;;;4987859;28;20198;-72
2022/05/05 11:33:30;;;;;;;6.45;3.95;;;;;;;;;;4985846;28;20821;-71
2022/05/05 11:35:57;;;;;;;8.57;4.40;;;;;;;;;;4979960;28;20272;-71
2022/05/05 11:38:23;;;;;;;9.38;3.75;;;;;;;;;;4988761;28;20198;-71
2022/05/05 11:40:57;;;;;;;8.63;4.30;;;;;;;;;;4992113;28;20686;-73
2022/05/05 11:46:08;;;;;;;6.78;5.45;;;;;;;;;;4989153;28;20240;-72
2022/05/05 11:48:34;;;;;;;8.88;4.72;;;;;;;;;;4990110;28;20766;-72
2022/05/05 11:51:04;;;;;;;8.30;4.90;;;;;;;;;;4991514;28;20190;-72
2022/05/05 11:53:30;;;;;;;10.85;5.88;;;;;;;;;;4990286;28;20193;-70
2022/05/05 11:55:56;;;;;;;7.97;5.15;;;;;;;;;;4990945;28;20201;-70
2022/05/05 12:03:58;;;;;;;10.50;5.70;;;;;;;;;;4991653;28;20303;-72
2022/05/05 12:06:25;;;;;;;7.53;4.90;;;;;;;;;;4988398;28;20197;-71
2022/05/05 12:08:50;;;;;;;7.05;4.78;;;;;;;;;;4988146;28;20264;-71
2022/05/05 12:11:16;;;;;;;8.02;4.70;;;;;;;;;;4997444;28;20198;-71
2022/05/05 12:13:42;;;;;;;9.30;5.00;;;;;;;;;;4995265;28;20627;-71
2022/05/05 12:16:10;;;;;;;8.13;5.00;;;;;;;;;;4993736;28;20213;-71
2022/05/05 12:18:49;;;;;;;11.80;8.95;;;;;;;;;;4984954;28;20194;-72
2022/05/05 12:21:24;;;;;;;12.65;8.93;;;;;;;;;;4976182;28;20682;-71
2022/05/05 12:23:58;;;;;;;15.15;8.52;;;;;;;;;;4966356;28;20185;-71
2022/05/05 12:26:32;;;;;;;12.45;8.18;;;;;;;;;;4975997;28;20231;-72
2022/05/05 12:28:58;;;;;;;11.13;7.57;;;;;;;;;;4988280;28;20190;-72
2022/05/05 12:31:24;;;;;;;12.82;8.07;;;;;;;;;;4988898;28;20703;-73
2022/05/05 12:33:50;;;;;;;56.47;10.05;;;;;;;;;;4996100;28;20244;-72
2022/05/05 12:36:17;;;;;;;12.98;7.63;;;;;;;;;;4991875;28;20198;-72
2022/05/05 12:38:43;;;;;;;9.63;7.50;;;;;;;;;;4975958;28;20190;-71
2022/05/05 12:41:09;;;;;;;10.32;7.13;;;;;;;;;;4997637;28;20575;-71
2022/05/05 12:43:35;;;;;;;12.30;8.25;;;;;;;;;;4993901;28;20193;-72
2022/05/05 12:46:04;;;;;;;11.50;8.02;;;;;;;;;;4992088;28;20190;-72
2022/05/05 12:48:31;;;;;;;13.68;7.70;;;;;;;;;;4990977;28;20206;-72
2022/05/05 12:50:57;;;;;;;9.98;7.63;;;;;;;;;;4983921;28;20230;-73
2022/05/05 13:02:01;;;;;;;8.73;6.45;;;;;;;;;;4980552;28;20263;-75
2022/05/05 13:04:27;;;;;;;8.30;6.03;;;;;;;;;;4983635;28;20245;-75
2022/05/05 13:06:52;;;;;;;7.85;6.95;;;;;;;;;;4982517;28;20188;-75
2022/05/05 13:09:18;;;;;;;7.30;6.03;;;;;;;;;;4990563;28;20190;-74
2022/05/05 13:11:46;;;;;;;9.27;6.13;;;;;;;;;;4972196;28;20221;-74
2022/05/05 13:14:12;;;;;;;14.90;6.65;;;;;;;;;;4981859;28;20181;-76
2022/05/05 13:16:38;;;;;;;6.20;5.55;;;;;;;;;;4984550;28;20193;-76
2022/05/05 13:19:04;;;;;;;9.07;6.38;;;;;;;;;;4982965;28;20190;-75
2022/05/05 13:21:30;;;;;;;13.18;6.75;;;;;;;;;;4967466;28;20236;-75
2022/05/05 13:23:56;;;;;;;6.70;5.80;;;;;;;;;;4959502;28;20650;-77
2022/05/05 13:26:22;;;;;;;6.78;5.00;;;;;;;;;;4983312;28;20205;-74
2022/05/05 13:28:48;;;;;;;9.07;5.30;;;;;;;;;;4988261;28;20218;-74
2022/05/05 13:31:14;;;;;;;9.80;5.28;;;;;;;;;;4981334;28;20193;-74
2022/05/05 13:33:41;;;;;;;9.32;5.50;;;;;;;;;;4983645;28;20745;-74
2022/05/05 13:36:07;;;;;;;5.55;5.05;;;;;;;;;;4980898;28;20577;-74
2022/05/05 13:38:33;;;;;;;7.80;5.20;;;;;;;;;;4974389;28;20194;-74
2022/05/05 13:40:59;;;;;;;5.60;4.80;;;;;;;;;;4983934;28;20217;-73
2022/05/05 13:43:25;;;;;;;8.27;5.30;;;;;;;;;;4995622;28;20197;-73
2022/05/05 13:45:51;;;;;;;5.20;4.70;;;;;;;;;;4986419;28;20186;-72
2022/05/05 13:48:18;;;;;;;7.63;5.30;;;;;;;;;;4987292;28;20190;-72
2022/05/05 13:50:44;;;;;;;9.10;6.63;;;;;;;;;;4984352;28;20751;-73
2022/05/05 13:53:10;;;;;;;7.30;5.50;;;;;;;;;;4987668;28;20270;-72
2022/05/05 13:55:36;;;;;;;5.07;3.20;;;;;;;;;;4990861;28;20364;-73
2022/05/05 13:58:03;;;;;;;6.00;4.35;;;;;;;;;;4989210;28;20193;-72
2022/05/05 14:00:30;;;;;;;6.47;5.18;;;;;;;;;;4975235;28;20201;-71
2022/05/05 14:02:56;;;;;;;6.53;4.68;;;;;;;;;;4976045;28;20235;-71
2022/05/05 14:05:22;;;;;;;10.52;6.03;;;;;;;;;;4960525;28;20640;-71
2022/05/05 14:13:17;;;;;;;10.35;6.70;;;;;;;;;;4950088;28;20216;-74
2022/05/05 14:15:43;;;;;;;11.75;6.35;;;;;;;;;;4964917;28;20682;-73
2022/05/05 14:18:09;;;;;;;9.43;6.57;;;;;;;;;;4979657;28;20186;-73
2022/05/05 14:20:35;;;;;;;13.30;6.25;;;;;;;;;;4989785;28;20580;-73
2022/05/05 14:23:01;;;;;;;10.35;6.93;;;;;;;;;;4989556;28;20190;-73
2022/05/05 14:25:27;;;;;;;10.55;6.90;;;;;;;;;;4982245;28;20182;-73
2022/05/05 14:27:53;;;;;;;12.75;7.05;;;;;;;;;;4981732;28;20716;-73
2022/05/05 14:30:19;;;;;;;8.15;6.65;;;;;;;;;;4984869;28;20716;-73
2022/05/05 14:32:46;;;;;;;13.18;8.38;;;;;;;;;;4993399;28;20275;-73
2022/05/05 14:35:12;;;;;;;9.80;7.50;;;;;;;;;;4991285;28;20682;-73
2022/05/05 14:37:38;;;;;;;10.48;7.38;;;;;;;;;;4991208;28;20564;-73
2022/05/05 14:40:04;;;;;;;8.55;7.45;;;;;;;;;;4991008;28;20560;-73
2022/05/05 14:42:30;;;;;;;13.82;7.15;;;;;;;;;;4989533;28;20212;-72
2022/05/05 14:44:56;;;;;;;10.05;6.82;;;;;;;;;;4989905;28;20570;-73
2022/05/05 14:47:22;;;;;;;8.63;5.68;;;;;;;;;;4984355;28;20190;-73
2022/05/05 14:49:48;;;;;;;6.72;5.00;;;;;;;;;;4967499;28;20784;-73
2022/05/05 14:52:15;;;;;;;7.03;5.95;;;;;;;;;;4965878;28;20190;-73
2022/05/05 14:54:41;;;;;;;10.02;7.28;;;;;;;;;;4987321;28;20217;-73
2022/05/05 14:57:07;;;;;;;11.07;6.57;;;;;;;;;;4987298;28;20185;-73
2022/05/05 14:59:33;;;;;;;12.10;7.25;;;;;;;;;;4992597;28;20197;-73
2022/05/05 15:01:59;;;;;;;11.60;7.32;;;;;;;;;;4988975;28;20235;-73
2022/05/05 15:04:25;;;;;;;9.48;6.18;;;;;;;;;;4985051;28;21409;-74
2022/05/05 15:06:51;;;;;;;9.38;6.93;;;;;;;;;;4984623;28;20205;-73
2022/05/05 15:09:18;;;;;;;10.23;6.95;;;;;;;;;;4985908;28;20570;-72
2022/05/05 15:11:44;;;;;;;6.97;6.28;;;;;;;;;;4991686;28;20815;-73
2022/05/05 15:14:10;;;;;;;13.07;6.80;;;;;;;;;;4986056;28;20476;-73
2022/05/05 15:16:35;;;;;;;11.15;7.45;;;;;;;;;;4990264;28;20277;-73
2022/05/05 15:19:01;;;;;;;10.38;7.32;;;;;;;;;;4987263;28;20201;-73
2022/05/05 15:21:27;;;;;;;7.80;6.05;;;;;;;;;;4989141;28;20687;-72
2022/05/05 15:23:54;;;;;;;8.32;6.70;;;;;;;;;;4994023;28;20209;-73
2022/05/05 15:26:20;;;;;;;7.30;6.25;;;;;;;;;;4989621;28;20177;-73
2022/05/05 15:28:46;;;;;;;9.85;6.43;;;;;;;;;;4990027;28;20198;-72
2022/05/05 15:31:12;;;;;;;9.02;6.93;;;;;;;;;;4990876;28;20182;-72
2022/05/05 15:33:38;;;;;;;11.20;6.80;;;;;;;;;;4986680;28;20754;-72
2022/05/05 15:36:07;;;;;;;8.65;6.05;;;;;;;;;;4991544;28;20757;-72
2022/05/05 15:38:33;;;;;;;8.50;6.38;;;;;;;;;;4973799;28;20621;-73
2022/05/05 15:40:59;;;;;;;7.85;6.00;;;;;;;;;;4998710;28;20296;-72